sensor_id;sensor_type;location;lat;lon;timestamp;P1;durP1;ratioP1;P2;durP2;ratioP2
29006;SDS011;16104;48.642;9.008;2023-07-24T01:03:57;8.48;;;6.18;;
29006;SDS011;16104;48.642;9.008;2023-07-24T01:08:52;8.93;;;6.20;;
29006;SDS011;16104;48.642;9.008;2023-07-24T01:13:51;8.73;;;5.88;;
29006;SDS011;16104;48.642;9.008;2023-07-24T02:00:26;8.93;;;6.25;;
29006;SDS011;16104;48.642;9.008;2023-07-24T02:05:22;10.70;;;5.70;;
29006;SDS011;16104;48.642;9.008;2023-07-24T02:10:17;9.00;;;6.30;;
29006;SDS011;16104;48.642;9.008;2023-07-24T02:15:13;9.73;;;6.57;;
29006;SDS011;16104;48.642;9.008;2023-07-24T03:00:51;8.10;;;6.00;;
29006;SDS011;16104;48.642;9.008;2023-07-24T03:05:47;7.55;;;5.80;;
29006;SDS011;16104;48.642;9.008;2023-07-24T03:10:42;10.10;;;6.63;;
29006;SDS011;16104;48.642;9.008;2023-07-24T03:15:38;8.40;;;5.00;;
29006;SDS011;16104;48.642;9.008;2023-07-24T03:20:33;9.50;;;5.93;;
29006;SDS011;16104;48.642;9.008;2023-07-24T03:25:30;9.10;;;5.28;;
29006;SDS011;16104;48.642;9.008;2023-07-24T03:30:30;9.52;;;6.40;;
29006;SDS011;16104;48.642;9.008;2023-07-24T03:35:26;8.30;;;5.93;;
29006;SDS011;16104;48.642;9.008;2023-07-24T03:40:21;9.55;;;6.10;;
29006;SDS011;16104;48.642;9.008;2023-07-24T03:45:17;9.73;;;6.60;;
29006;SDS011;16104;48.642;9.008;2023-07-24T03:50:12;11.10;;;7.28;;
29006;SDS011;16104;48.642;9.008;2023-07-24T03:55:08;8.40;;;6.30;;
29006;SDS011;16104;48.642;9.008;2023-07-24T04:00:04;9.55;;;6.63;;
29006;SDS011;16104;48.642;9.008;2023-07-24T04:05:00;9.30;;;6.40;;
29006;SDS011;16104;48.642;9.008;2023-07-24T04:09:56;10.25;;;7.25;;
29006;SDS011;16104;48.642;9.008;2023-07-24T04:14:51;9.93;;;6.72;;
29006;SDS011;16104;48.642;9.008;2023-07-24T04:19:47;11.63;;;6.30;;
29006;SDS011;16104;48.642;9.008;2023-07-24T04:24:42;11.55;;;7.38;;
29006;SDS011;16104;48.642;9.008;2023-07-24T04:29:38;8.82;;;6.53;;
29006;SDS011;16104;48.642;9.008;2023-07-24T04:34:33;10.98;;;6.90;;
29006;SDS011;16104;48.642;9.008;2023-07-24T04:39:29;9.05;;;6.32;;
29006;SDS011;16104;48.642;9.008;2023-07-24T04:44:24;9.20;;;6.18;;
29006;SDS011;16104;48.642;9.008;2023-07-24T04:49:20;11.40;;;5.90;;
29006;SDS011;16104;48.642;9.008;2023-07-24T04:54:15;8.93;;;6.32;;
29006;SDS011;16104;48.642;9.008;2023-07-24T04:59:11;10.50;;;6.85;;
29006;SDS011;16104;48.642;9.008;2023-07-24T05:04:07;11.98;;;7.00;;
29006;SDS011;16104;48.642;9.008;2023-07-24T05:09:02;9.02;;;6.65;;
29006;SDS011;16104;48.642;9.008;2023-07-24T05:13:58;10.30;;;6.80;;
29006;SDS011;16104;48.642;9.008;2023-07-24T05:18:53;10.10;;;6.97;;
29006;SDS011;16104;48.642;9.008;2023-07-24T05:23:49;12.60;;;7.13;;
29006;SDS011;16104;48.642;9.008;2023-07-24T05:28:44;12.25;;;7.10;;
29006;SDS011;16104;48.642;9.008;2023-07-24T05:33:40;11.05;;;6.80;;
29006;SDS011;16104;48.642;9.008;2023-07-24T05:38:36;13.02;;;6.80;;
29006;SDS011;16104;48.642;9.008;2023-07-24T05:43:31;12.50;;;6.78;;
29006;SDS011;16104;48.642;9.008;2023-07-24T05:48:27;10.13;;;7.00;;
29006;SDS011;16104;48.642;9.008;2023-07-24T05:53:23;12.68;;;7.40;;
29006;SDS011;16104;48.642;9.008;2023-07-24T05:58:18;10.43;;;7.13;;
29006;SDS011;16104;48.642;9.008;2023-07-24T06:03:13;9.02;;;6.43;;
29006;SDS011;16104;48.642;9.008;2023-07-24T06:08:09;10.20;;;7.15;;
29006;SDS011;16104;48.642;9.008;2023-07-24T06:13:06;12.73;;;7.28;;
29006;SDS011;16104;48.642;9.008;2023-07-24T06:18:01;10.77;;;6.63;;
29006;SDS011;16104;48.642;9.008;2023-07-24T06:22:56;11.55;;;6.68;;
29006;SDS011;16104;48.642;9.008;2023-07-24T06:27:52;13.48;;;7.60;;
29006;SDS011;16104;48.642;9.008;2023-07-24T06:32:47;10.32;;;6.72;;
29006;SDS011;16104;48.642;9.008;2023-07-24T06:37:43;9.07;;;6.72;;
29006;SDS011;16104;48.642;9.008;2023-07-24T06:42:38;14.25;;;7.90;;
29006;SDS011;16104;48.642;9.008;2023-07-24T06:47:34;10.45;;;7.05;;
29006;SDS011;16104;48.642;9.008;2023-07-24T06:52:30;12.13;;;7.50;;
29006;SDS011;16104;48.642;9.008;2023-07-24T06:57:27;11.98;;;8.00;;
29006;SDS011;16104;48.642;9.008;2023-07-24T07:02:22;10.15;;;7.40;;
29006;SDS011;16104;48.642;9.008;2023-07-24T07:07:18;11.88;;;7.20;;
29006;SDS011;16104;48.642;9.008;2023-07-24T07:12:13;10.10;;;6.82;;
29006;SDS011;16104;48.642;9.008;2023-07-24T07:17:09;15.75;;;7.57;;
29006;SDS011;16104;48.642;9.008;2023-07-24T07:22:04;13.35;;;8.13;;
29006;SDS011;16104;48.642;9.008;2023-07-24T07:27:00;12.15;;;7.70;;
29006;SDS011;16104;48.642;9.008;2023-07-24T07:31:55;12.55;;;7.68;;
29006;SDS011;16104;48.642;9.008;2023-07-24T07:36:51;11.55;;;7.28;;
29006;SDS011;16104;48.642;9.008;2023-07-24T07:41:46;11.57;;;7.25;;
29006;SDS011;16104;48.642;9.008;2023-07-24T07:46:42;12.65;;;7.60;;
29006;SDS011;16104;48.642;9.008;2023-07-24T07:51:37;10.45;;;7.03;;
29006;SDS011;16104;48.642;9.008;2023-07-24T07:56:33;10.98;;;7.65;;
29006;SDS011;16104;48.642;9.008;2023-07-24T08:01:28;9.38;;;7.22;;
29006;SDS011;16104;48.642;9.008;2023-07-24T08:06:25;16.00;;;8.18;;
29006;SDS011;16104;48.642;9.008;2023-07-24T08:11:21;13.05;;;6.90;;
29006;SDS011;16104;48.642;9.008;2023-07-24T08:16:16;10.48;;;6.72;;
29006;SDS011;16104;48.642;9.008;2023-07-24T08:21:15;10.93;;;6.40;;
29006;SDS011;16104;48.642;9.008;2023-07-24T08:26:10;9.23;;;6.00;;
29006;SDS011;16104;48.642;9.008;2023-07-24T08:31:06;9.85;;;5.20;;
29006;SDS011;16104;48.642;9.008;2023-07-24T08:36:03;8.43;;;5.63;;
29006;SDS011;16104;48.642;9.008;2023-07-24T08:41:09;8.77;;;5.53;;
29006;SDS011;16104;48.642;9.008;2023-07-24T08:46:06;7.43;;;5.75;;
29006;SDS011;16104;48.642;9.008;2023-07-24T08:51:06;8.55;;;5.63;;
29006;SDS011;16104;48.642;9.008;2023-07-24T08:56:10;8.32;;;4.95;;
29006;SDS011;16104;48.642;9.008;2023-07-24T09:01:09;5.05;;;4.18;;
29006;SDS011;16104;48.642;9.008;2023-07-24T09:06:05;5.30;;;4.50;;
29006;SDS011;16104;48.642;9.008;2023-07-24T09:11:04;5.90;;;4.03;;
29006;SDS011;16104;48.642;9.008;2023-07-24T09:16:01;6.18;;;4.30;;
29006;SDS011;16104;48.642;9.008;2023-07-24T09:20:57;5.60;;;4.55;;
29006;SDS011;16104;48.642;9.008;2023-07-24T09:25:52;5.82;;;4.43;;
29006;SDS011;16104;48.642;9.008;2023-07-24T09:30:52;5.70;;;3.78;;
29006;SDS011;16104;48.642;9.008;2023-07-24T09:35:58;7.50;;;4.60;;
29006;SDS011;16104;48.642;9.008;2023-07-24T09:40:55;6.30;;;4.90;;
29006;SDS011;16104;48.642;9.008;2023-07-24T09:45:52;8.50;;;4.97;;
29006;SDS011;16104;48.642;9.008;2023-07-24T09:50:49;9.85;;;5.10;;
29006;SDS011;16104;48.642;9.008;2023-07-24T09:55:57;6.97;;;5.18;;
29006;SDS011;16104;48.642;9.008;2023-07-24T10:00:54;7.50;;;5.40;;
29006;SDS011;16104;48.642;9.008;2023-07-24T10:05:50;8.10;;;5.50;;
29006;SDS011;16104;48.642;9.008;2023-07-24T10:10:48;6.20;;;4.95;;
29006;SDS011;16104;48.642;9.008;2023-07-24T10:15:47;6.77;;;5.13;;
29006;SDS011;16104;48.642;9.008;2023-07-24T10:20:43;7.40;;;5.25;;
29006;SDS011;16104;48.642;9.008;2023-07-24T10:25:39;7.90;;;5.70;;
29006;SDS011;16104;48.642;9.008;2023-07-24T10:30:39;10.52;;;5.28;;
29006;SDS011;16104;48.642;9.008;2023-07-24T10:35:38;9.30;;;5.63;;
29006;SDS011;16104;48.642;9.008;2023-07-24T10:40:35;9.15;;;5.30;;
29006;SDS011;16104;48.642;9.008;2023-07-24T10:50:44;8.27;;;5.60;;
29006;SDS011;16104;48.642;9.008;2023-07-24T10:55:41;10.00;;;6.00;;
29006;SDS011;16104;48.642;9.008;2023-07-24T11:00:41;11.30;;;5.03;;
29006;SDS011;16104;48.642;9.008;2023-07-24T11:05:40;9.90;;;5.53;;
29006;SDS011;16104;48.642;9.008;2023-07-24T11:10:37;7.78;;;5.47;;
29006;SDS011;16104;48.642;9.008;2023-07-24T11:15:32;8.55;;;5.50;;
29006;SDS011;16104;48.642;9.008;2023-07-24T11:20:28;9.07;;;5.05;;
29006;SDS011;16104;48.642;9.008;2023-07-24T11:25:24;7.53;;;4.93;;
29006;SDS011;16104;48.642;9.008;2023-07-24T11:30:20;7.20;;;5.55;;
29006;SDS011;16104;48.642;9.008;2023-07-24T11:35:16;9.13;;;5.60;;
29006;SDS011;16104;48.642;9.008;2023-07-24T11:40:12;7.65;;;5.15;;
29006;SDS011;16104;48.642;9.008;2023-07-24T11:45:09;8.60;;;5.47;;
29006;SDS011;16104;48.642;9.008;2023-07-24T11:50:05;7.38;;;5.10;;
29006;SDS011;16104;48.642;9.008;2023-07-24T11:55:01;6.85;;;5.30;;
29006;SDS011;16104;48.642;9.008;2023-07-24T11:59:58;8.25;;;5.30;;
29006;SDS011;16104;48.642;9.008;2023-07-24T12:04:55;7.90;;;5.03;;
29006;SDS011;16104;48.642;9.008;2023-07-24T12:09:52;7.65;;;5.20;;
29006;SDS011;16104;48.642;9.008;2023-07-24T12:14:48;6.88;;;5.35;;
29006;SDS011;16104;48.642;9.008;2023-07-24T12:19:43;7.10;;;5.57;;
29006;SDS011;16104;48.642;9.008;2023-07-24T12:24:39;8.27;;;5.43;;
29006;SDS011;16104;48.642;9.008;2023-07-24T12:29:34;8.65;;;5.43;;
29006;SDS011;16104;48.642;9.008;2023-07-24T12:34:30;6.45;;;5.00;;
29006;SDS011;16104;48.642;9.008;2023-07-24T12:39:25;8.10;;;5.20;;
29006;SDS011;16104;48.642;9.008;2023-07-24T12:44:21;6.47;;;5.13;;
29006;SDS011;16104;48.642;9.008;2023-07-24T12:49:17;5.03;;;4.43;;
29006;SDS011;16104;48.642;9.008;2023-07-24T12:54:13;6.57;;;4.57;;
29006;SDS011;16104;48.642;9.008;2023-07-24T12:59:08;7.38;;;4.78;;
29006;SDS011;16104;48.642;9.008;2023-07-24T13:04:04;6.03;;;4.65;;
29006;SDS011;16104;48.642;9.008;2023-07-24T13:09:00;5.93;;;4.85;;
29006;SDS011;16104;48.642;9.008;2023-07-24T13:13:55;6.03;;;4.45;;
29006;SDS011;16104;48.642;9.008;2023-07-24T13:18:51;7.43;;;4.78;;
29006;SDS011;16104;48.642;9.008;2023-07-24T13:23:47;5.55;;;4.63;;
29006;SDS011;16104;48.642;9.008;2023-07-24T13:28:42;5.63;;;4.78;;
29006;SDS011;16104;48.642;9.008;2023-07-24T13:33:38;4.85;;;4.35;;
29006;SDS011;16104;48.642;9.008;2023-07-24T13:38:34;5.10;;;4.45;;
29006;SDS011;16104;48.642;9.008;2023-07-24T13:43:30;4.30;;;3.60;;
29006;SDS011;16104;48.642;9.008;2023-07-24T13:48:27;4.35;;;3.63;;
29006;SDS011;16104;48.642;9.008;2023-07-24T13:53:22;4.07;;;3.60;;
29006;SDS011;16104;48.642;9.008;2023-07-24T13:58:18;4.50;;;3.67;;
29006;SDS011;16104;48.642;9.008;2023-07-24T14:03:13;4.38;;;3.83;;
29006;SDS011;16104;48.642;9.008;2023-07-24T14:08:09;3.95;;;3.33;;
29006;SDS011;16104;48.642;9.008;2023-07-24T14:13:04;7.18;;;3.88;;
29006;SDS011;16104;48.642;9.008;2023-07-24T14:18:00;4.43;;;3.60;;
29006;SDS011;16104;48.642;9.008;2023-07-24T14:22:55;5.63;;;4.13;;
29006;SDS011;16104;48.642;9.008;2023-07-24T14:27:51;4.40;;;3.75;;
29006;SDS011;16104;48.642;9.008;2023-07-24T14:32:46;4.50;;;3.65;;
29006;SDS011;16104;48.642;9.008;2023-07-24T14:37:42;4.10;;;3.47;;
29006;SDS011;16104;48.642;9.008;2023-07-24T14:42:37;4.55;;;3.80;;
29006;SDS011;16104;48.642;9.008;2023-07-24T14:47:33;4.53;;;3.58;;
29006;SDS011;16104;48.642;9.008;2023-07-24T14:52:28;4.13;;;3.65;;
29006;SDS011;16104;48.642;9.008;2023-07-24T14:57:24;4.43;;;3.40;;
29006;SDS011;16104;48.642;9.008;2023-07-24T15:02:20;3.92;;;3.17;;
29006;SDS011;16104;48.642;9.008;2023-07-24T15:07:15;5.38;;;3.38;;
29006;SDS011;16104;48.642;9.008;2023-07-24T15:12:11;6.10;;;3.45;;
29006;SDS011;16104;48.642;9.008;2023-07-24T15:17:06;3.97;;;2.90;;
29006;SDS011;16104;48.642;9.008;2023-07-24T15:22:02;3.50;;;3.10;;
29006;SDS011;16104;48.642;9.008;2023-07-24T15:26:57;5.55;;;3.92;;
29006;SDS011;16104;48.642;9.008;2023-07-24T15:31:53;6.13;;;4.22;;
29006;SDS011;16104;48.642;9.008;2023-07-24T15:36:48;5.00;;;3.35;;
29006;SDS011;16104;48.642;9.008;2023-07-24T15:41:44;6.88;;;4.55;;
29006;SDS011;16104;48.642;9.008;2023-07-24T15:46:39;4.50;;;3.63;;
29006;SDS011;16104;48.642;9.008;2023-07-24T15:51:35;5.35;;;4.03;;
29006;SDS011;16104;48.642;9.008;2023-07-24T15:56:30;4.53;;;3.72;;
29006;SDS011;16104;48.642;9.008;2023-07-24T16:01:26;7.53;;;3.70;;
29006;SDS011;16104;48.642;9.008;2023-07-24T16:06:21;4.07;;;3.30;;
29006;SDS011;16104;48.642;9.008;2023-07-24T16:11:17;7.22;;;3.83;;
29006;SDS011;16104;48.642;9.008;2023-07-24T16:16:12;6.38;;;3.83;;
29006;SDS011;16104;48.642;9.008;2023-07-24T16:21:08;5.00;;;3.80;;
29006;SDS011;16104;48.642;9.008;2023-07-24T16:26:03;4.97;;;3.65;;
29006;SDS011;16104;48.642;9.008;2023-07-24T16:30:59;4.97;;;3.78;;
29006;SDS011;16104;48.642;9.008;2023-07-24T16:35:54;4.43;;;3.42;;
29006;SDS011;16104;48.642;9.008;2023-07-24T16:40:50;8.10;;;4.25;;
29006;SDS011;16104;48.642;9.008;2023-07-24T16:45:46;7.35;;;5.00;;
29006;SDS011;16104;48.642;9.008;2023-07-24T16:50:46;5.50;;;4.10;;
29006;SDS011;16104;48.642;9.008;2023-07-24T16:55:41;6.22;;;4.28;;
29006;SDS011;16104;48.642;9.008;2023-07-24T17:00:37;4.55;;;3.97;;
29006;SDS011;16104;48.642;9.008;2023-07-24T17:05:32;5.65;;;4.07;;
29006;SDS011;16104;48.642;9.008;2023-07-24T17:10:29;2.85;;;2.45;;
29006;SDS011;16104;48.642;9.008;2023-07-24T17:15:41;2.10;;;1.40;;
29006;SDS011;16104;48.642;9.008;2023-07-24T17:20:38;1.27;;;0.95;;
29006;SDS011;16104;48.642;9.008;2023-07-24T17:25:33;3.05;;;1.30;;
29006;SDS011;16104;48.642;9.008;2023-07-24T17:30:30;1.52;;;1.00;;
29006;SDS011;16104;48.642;9.008;2023-07-24T17:35:26;1.05;;;0.95;;
29006;SDS011;16104;48.642;9.008;2023-07-24T17:40:22;1.00;;;0.90;;
29006;SDS011;16104;48.642;9.008;2023-07-24T17:45:17;1.52;;;1.10;;
29006;SDS011;16104;48.642;9.008;2023-07-24T17:50:13;1.25;;;1.15;;
29006;SDS011;16104;48.642;9.008;2023-07-24T17:55:09;1.80;;;1.20;;
29006;SDS011;16104;48.642;9.008;2023-07-24T18:00:04;1.25;;;1.15;;
29006;SDS011;16104;48.642;9.008;2023-07-24T18:05:00;1.65;;;1.30;;
29006;SDS011;16104;48.642;9.008;2023-07-24T18:09:56;1.95;;;1.40;;
29006;SDS011;16104;48.642;9.008;2023-07-24T18:14:51;1.60;;;1.50;;
29006;SDS011;16104;48.642;9.008;2023-07-24T18:19:47;1.85;;;1.20;;
29006;SDS011;16104;48.642;9.008;2023-07-24T18:24:42;1.83;;;1.40;;
29006;SDS011;16104;48.642;9.008;2023-07-24T18:29:38;1.40;;;1.30;;
29006;SDS011;16104;48.642;9.008;2023-07-24T18:34:33;2.05;;;1.50;;
29006;SDS011;16104;48.642;9.008;2023-07-24T18:39:29;1.60;;;1.42;;
29006;SDS011;16104;48.642;9.008;2023-07-24T18:44:24;1.98;;;1.40;;
29006;SDS011;16104;48.642;9.008;2023-07-24T18:49:20;1.92;;;1.42;;
29006;SDS011;16104;48.642;9.008;2023-07-24T18:54:15;2.10;;;1.52;;
29006;SDS011;16104;48.642;9.008;2023-07-24T18:59:11;3.00;;;1.80;;
29006;SDS011;16104;48.642;9.008;2023-07-24T19:04:06;1.85;;;1.38;;
29006;SDS011;16104;48.642;9.008;2023-07-24T19:09:02;1.52;;;1.30;;
29006;SDS011;16104;48.642;9.008;2023-07-24T19:13:58;2.10;;;1.50;;
29006;SDS011;16104;48.642;9.008;2023-07-24T19:18:53;2.30;;;1.40;;
29006;SDS011;16104;48.642;9.008;2023-07-24T19:23:49;1.50;;;1.40;;
29006;SDS011;16104;48.642;9.008;2023-07-24T19:28:44;1.70;;;1.40;;
29006;SDS011;16104;48.642;9.008;2023-07-24T19:33:40;2.13;;;1.48;;
29006;SDS011;16104;48.642;9.008;2023-07-24T19:38:35;2.05;;;1.50;;
29006;SDS011;16104;48.642;9.008;2023-07-24T19:43:30;2.72;;;1.35;;
29006;SDS011;16104;48.642;9.008;2023-07-24T19:48:27;3.88;;;1.35;;
29006;SDS011;16104;48.642;9.008;2023-07-24T19:53:22;2.10;;;1.42;;
29006;SDS011;16104;48.642;9.008;2023-07-24T19:58:21;2.33;;;1.27;;
29006;SDS011;16104;48.642;9.008;2023-07-24T20:03:17;2.05;;;1.48;;
29006;SDS011;16104;48.642;9.008;2023-07-24T20:08:13;3.05;;;1.30;;
29006;SDS011;16104;48.642;9.008;2023-07-24T20:13:09;3.53;;;1.58;;
29006;SDS011;16104;48.642;9.008;2023-07-24T20:18:04;3.65;;;1.60;;
29006;SDS011;16104;48.642;9.008;2023-07-24T20:23:00;2.55;;;1.75;;
29006;SDS011;16104;48.642;9.008;2023-07-24T20:27:55;2.08;;;1.60;;
29006;SDS011;16104;48.642;9.008;2023-07-24T20:32:51;2.80;;;1.70;;
29006;SDS011;16104;48.642;9.008;2023-07-24T20:37:46;2.10;;;1.63;;
29006;SDS011;16104;48.642;9.008;2023-07-24T20:42:44;2.05;;;1.75;;
29006;SDS011;16104;48.642;9.008;2023-07-24T20:47:39;3.20;;;1.83;;
29006;SDS011;16104;48.642;9.008;2023-07-24T20:52:35;3.88;;;1.50;;
29006;SDS011;16104;48.642;9.008;2023-07-24T20:57:31;2.80;;;1.77;;
29006;SDS011;16104;48.642;9.008;2023-07-24T21:02:26;2.53;;;1.75;;
29006;SDS011;16104;48.642;9.008;2023-07-24T21:07:22;2.50;;;1.85;;
29006;SDS011;16104;48.642;9.008;2023-07-24T21:12:17;4.13;;;1.70;;
29006;SDS011;16104;48.642;9.008;2023-07-24T21:17:13;2.15;;;1.75;;
29006;SDS011;16104;48.642;9.008;2023-07-24T21:22:08;3.83;;;2.20;;
29006;SDS011;16104;48.642;9.008;2023-07-24T21:27:04;4.10;;;2.25;;
29006;SDS011;16104;48.642;9.008;2023-07-24T21:31:59;2.65;;;2.13;;
29006;SDS011;16104;48.642;9.008;2023-07-24T21:36:55;3.95;;;2.58;;
29006;SDS011;16104;48.642;9.008;2023-07-24T21:41:50;2.35;;;2.00;;
29006;SDS011;16104;48.642;9.008;2023-07-24T21:46:46;2.70;;;2.35;;
29006;SDS011;16104;48.642;9.008;2023-07-24T21:51:41;3.00;;;2.33;;
29006;SDS011;16104;48.642;9.008;2023-07-24T21:56:37;2.60;;;2.22;;
29006;SDS011;16104;48.642;9.008;2023-07-24T22:01:32;3.80;;;2.50;;
29006;SDS011;16104;48.642;9.008;2023-07-24T22:06:28;2.88;;;2.42;;
29006;SDS011;16104;48.642;9.008;2023-07-24T22:11:23;5.03;;;2.47;;
29006;SDS011;16104;48.642;9.008;2023-07-24T22:16:19;4.45;;;2.53;;
29006;SDS011;16104;48.642;9.008;2023-07-24T22:21:15;2.78;;;2.40;;
29006;SDS011;16104;48.642;9.008;2023-07-24T22:26:10;3.67;;;2.60;;
29006;SDS011;16104;48.642;9.008;2023-07-24T22:31:06;4.03;;;2.70;;
29006;SDS011;16104;48.642;9.008;2023-07-24T22:36:06;2.65;;;2.45;;
29006;SDS011;16104;48.642;9.008;2023-07-24T22:41:07;3.67;;;2.35;;
29006;SDS011;16104;48.642;9.008;2023-07-24T22:46:06;2.35;;;2.00;;
29006;SDS011;16104;48.642;9.008;2023-07-24T22:51:02;3.35;;;2.72;;
29006;SDS011;16104;48.642;9.008;2023-07-24T22:55:57;2.75;;;2.45;;
29006;SDS011;16104;48.642;9.008;2023-07-24T23:00:53;5.10;;;2.75;;
29006;SDS011;16104;48.642;9.008;2023-07-24T23:05:49;3.40;;;2.47;;
29006;SDS011;16104;48.642;9.008;2023-07-24T23:10:47;4.60;;;2.10;;
29006;SDS011;16104;48.642;9.008;2023-07-24T23:15:44;3.10;;;2.55;;
29006;SDS011;16104;48.642;9.008;2023-07-24T23:20:40;2.45;;;2.20;;
29006;SDS011;16104;48.642;9.008;2023-07-24T23:25:35;3.47;;;2.60;;
29006;SDS011;16104;48.642;9.008;2023-07-24T23:30:37;3.72;;;2.42;;
29006;SDS011;16104;48.642;9.008;2023-07-24T23:35:36;3.33;;;2.30;;
29006;SDS011;16104;48.642;9.008;2023-07-24T23:40:32;2.95;;;2.47;;
29006;SDS011;16104;48.642;9.008;2023-07-24T23:45:33;3.08;;;2.60;;
29006;SDS011;16104;48.642;9.008;2023-07-24T23:50:35;2.72;;;2.30;;
29006;SDS011;16104;48.642;9.008;2023-07-24T23:55:32;2.92;;;2.47;;
